createdAt,value
2018-11-03T00:01:11.836Z,15.27
2018-11-03T00:03:40.163Z,14.50
2018-11-03T00:06:08.507Z,14.70
2018-11-03T00:08:37.056Z,14.30
2018-11-03T00:11:05.715Z,14.30
2018-11-03T00:13:34.622Z,14.53
2018-11-03T00:16:02.986Z,14.83
2018-11-03T00:18:31.301Z,18.10
2018-11-03T00:20:59.779Z,16.67
2018-11-03T00:23:28.161Z,17.07
2018-11-03T00:25:56.527Z,15.40
2018-11-03T00:28:25.011Z,15.63
2018-11-03T00:30:54.646Z,16.73
2018-11-03T00:33:23.138Z,16.60
2018-11-03T00:35:51.533Z,15.93
2018-11-03T00:38:20.368Z,15.88
2018-11-03T00:40:49.275Z,16.93
2018-11-03T00:43:17.774Z,17.65
2018-11-03T00:45:46.168Z,17.05
2018-11-03T00:48:14.559Z,16.90
2018-11-03T00:50:43.395Z,16.95
2018-11-03T00:53:12.210Z,17.00
2018-11-03T00:58:18.466Z,19.32
2018-11-03T01:00:48.108Z,19.77
2018-11-03T01:03:16.499Z,19.40
2018-11-03T01:05:44.818Z,19.67
2018-11-03T01:08:13.167Z,19.07
2018-11-03T01:10:41.583Z,18.65
2018-11-03T01:13:09.910Z,17.55
2018-11-03T01:15:38.239Z,19.52
2018-11-03T01:18:06.666Z,18.85
2018-11-03T01:20:35.050Z,18.87
2018-11-03T01:23:03.374Z,18.05
2018-11-03T01:25:31.766Z,20.02
2018-11-03T01:28:00.135Z,18.80
2018-11-03T01:30:28.467Z,19.67
2018-11-03T01:32:56.779Z,19.27
2018-11-03T01:35:25.099Z,19.45
2018-11-03T01:37:53.431Z,19.77
2018-11-03T01:40:21.744Z,19.60
2018-11-03T01:42:50.095Z,18.30
2018-11-03T01:45:19.129Z,19.50
2018-11-03T01:47:47.470Z,19.48
2018-11-03T01:50:15.792Z,20.40
2018-11-03T01:52:44.114Z,20.80
2018-11-03T01:55:12.430Z,20.62
2018-11-03T01:57:40.735Z,20.88
2018-11-03T02:00:09.819Z,21.37
2018-11-03T02:02:38.360Z,20.45
2018-11-03T02:05:07.348Z,19.23
2018-11-03T02:07:35.698Z,19.52
2018-11-03T02:10:04.075Z,19.80
2018-11-03T02:12:32.400Z,18.60
2018-11-03T02:15:00.735Z,20.55
2018-11-03T02:17:29.073Z,18.23
2018-11-03T02:19:57.540Z,19.40
2018-11-03T02:22:25.867Z,19.27
2018-11-03T02:24:54.182Z,18.42
2018-11-03T02:27:22.513Z,19.52
2018-11-03T02:29:50.835Z,18.17
2018-11-03T02:32:19.140Z,20.08
2018-11-03T02:34:47.491Z,20.40
2018-11-03T02:37:15.808Z,20.23
2018-11-03T02:39:44.115Z,20.30
2018-11-03T02:42:12.440Z,20.68
2018-11-03T02:44:40.750Z,19.82
2018-11-03T02:47:09.068Z,20.15
2018-11-03T02:49:37.427Z,19.12
2018-11-03T02:52:05.799Z,19.23
2018-11-03T02:54:34.184Z,18.98
2018-11-03T02:57:02.516Z,19.85
2018-11-03T02:59:30.838Z,20.08
2018-11-03T03:01:59.182Z,21.70
2018-11-03T03:04:27.484Z,19.95
2018-11-03T03:06:55.855Z,21.02
2018-11-03T03:09:24.203Z,20.20
2018-11-03T03:11:52.539Z,19.80
2018-11-03T03:14:20.855Z,19.52
2018-11-03T03:16:49.235Z,19.82
2018-11-03T03:19:17.610Z,18.60
2018-11-03T03:21:46.962Z,19.50
2018-11-03T03:24:15.325Z,20.08
2018-11-03T03:26:43.665Z,19.87
2018-11-03T03:29:12.074Z,19.12
2018-11-03T03:31:40.299Z,19.42
2018-11-03T03:34:08.603Z,17.10
2018-11-03T03:36:36.979Z,18.12
2018-11-03T03:39:08.071Z,17.23
2018-11-03T03:41:36.447Z,18.27
2018-11-03T03:44:05.544Z,17.55
2018-11-03T03:46:33.860Z,19.25
2018-11-03T03:49:02.171Z,18.17
2018-11-03T03:51:30.624Z,17.37
2018-11-03T03:53:59.060Z,17.20
2018-11-03T03:56:27.389Z,16.17
2018-11-03T03:58:55.743Z,15.98
2018-11-03T04:01:24.063Z,16.40
2018-11-03T04:03:52.383Z,17.42
2018-11-03T04:06:20.680Z,16.93
2018-11-03T04:08:49.635Z,15.88
2018-11-03T04:11:17.947Z,17.32
2018-11-03T04:13:46.308Z,17.07
2018-11-03T04:16:14.632Z,18.45
2018-11-03T04:18:42.935Z,18.15
2018-11-03T04:21:15.623Z,16.57
2018-11-03T04:23:43.943Z,14.40
2018-11-03T04:26:12.256Z,15.13
2018-11-03T04:28:40.738Z,15.08
2018-11-03T04:31:09.057Z,15.05
2018-11-03T04:33:37.365Z,17.40
2018-11-03T04:36:05.673Z,16.70
2018-11-03T04:38:33.987Z,16.15
2018-11-03T04:41:02.303Z,16.55
2018-11-03T04:43:30.631Z,15.55
2018-11-03T04:45:59.030Z,15.58
2018-11-03T04:48:27.335Z,14.87
2018-11-03T04:50:55.667Z,15.83
2018-11-03T04:53:23.999Z,14.58
2018-11-03T04:55:52.324Z,13.90
2018-11-03T04:58:20.638Z,15.95
2018-11-03T05:00:49.015Z,15.98
2018-11-03T05:03:17.316Z,14.18
2018-11-03T05:05:45.656Z,14.68
2018-11-03T05:08:13.983Z,14.23
2018-11-03T05:10:42.303Z,14.13
2018-11-03T05:13:11.015Z,15.25
2018-11-03T05:15:39.340Z,13.32
2018-11-03T05:18:07.655Z,14.53
2018-11-03T05:20:36.021Z,13.83
2018-11-03T05:23:04.414Z,13.80
2018-11-03T05:25:32.747Z,14.25
2018-11-03T05:28:01.144Z,14.55
2018-11-03T05:30:29.458Z,13.85
2018-11-03T05:32:57.817Z,13.32
2018-11-03T05:35:26.174Z,12.50
2018-11-03T05:37:54.432Z,12.70
2018-11-03T05:40:22.735Z,12.53
2018-11-03T05:42:51.047Z,12.58
2018-11-03T05:45:19.364Z,13.15
2018-11-03T05:47:47.687Z,12.20
2018-11-03T05:50:16.003Z,12.30
2018-11-03T05:52:44.330Z,11.35
2018-11-03T05:55:12.659Z,11.53
2018-11-03T05:57:40.999Z,12.30
2018-11-03T06:00:09.993Z,12.10
2018-11-03T06:02:38.464Z,11.35
2018-11-03T06:05:06.915Z,10.30
2018-11-03T06:07:35.329Z,10.30
2018-11-03T06:10:03.901Z,9.80
2018-11-03T06:12:32.283Z,10.43
2018-11-03T06:15:00.799Z,10.38
2018-11-03T06:17:29.244Z,10.43
2018-11-03T06:19:57.698Z,9.30
2018-11-03T06:22:26.109Z,9.15
2018-11-03T06:24:54.627Z,9.63
2018-11-03T06:27:23.036Z,8.48
2018-11-03T06:29:51.546Z,8.70
2018-11-03T06:32:20.022Z,7.50
2018-11-03T06:34:48.401Z,7.50
2018-11-03T06:37:16.907Z,8.75
2018-11-03T06:39:45.296Z,7.87
2018-11-03T06:42:13.672Z,8.80
2018-11-03T06:44:42.067Z,8.18
2018-11-03T06:47:10.678Z,8.10
2018-11-03T06:49:39.274Z,7.00
2018-11-03T06:52:07.878Z,8.20
2018-11-03T06:54:36.151Z,6.95
2018-11-03T06:57:04.603Z,7.15
2018-11-03T06:59:33.122Z,7.17
2018-11-03T07:02:01.503Z,7.78
2018-11-03T07:04:29.991Z,6.60
2018-11-03T07:06:58.355Z,6.10
2018-11-03T07:09:26.837Z,5.60
2018-11-03T07:11:55.364Z,6.22
2018-11-03T07:14:23.838Z,6.60
2018-11-03T07:16:52.302Z,6.35
2018-11-03T07:19:20.699Z,5.90
2018-11-03T07:21:49.344Z,6.67
2018-11-03T07:24:17.704Z,6.20
2018-11-03T07:26:46.159Z,5.72
2018-11-03T07:29:14.651Z,5.17
2018-11-03T07:31:43.132Z,5.70
2018-11-03T07:34:11.771Z,5.47
2018-11-03T07:36:40.339Z,4.67
2018-11-03T07:39:09.384Z,4.40
2018-11-03T07:41:37.865Z,4.80
2018-11-03T07:44:07.142Z,4.35
2018-11-03T07:46:35.659Z,5.12
2018-11-03T07:49:04.429Z,4.70
2018-11-03T07:51:32.703Z,5.03
2018-11-03T07:54:01.285Z,5.40
2018-11-03T07:56:29.771Z,4.10
2018-11-03T07:58:58.334Z,4.25
2018-11-03T08:01:26.794Z,3.72
2018-11-03T08:03:55.226Z,4.05
2018-11-03T08:06:23.680Z,5.25
2018-11-03T08:08:52.142Z,4.95
2018-11-03T08:11:20.512Z,3.65
2018-11-03T08:13:49.011Z,3.10
2018-11-03T08:16:17.425Z,3.12
2018-11-03T08:18:45.871Z,3.30
2018-11-03T08:21:14.270Z,4.28
2018-11-03T08:23:42.749Z,4.25
2018-11-03T08:26:11.163Z,4.70
2018-11-03T08:28:39.615Z,4.43
2018-11-03T08:31:08.177Z,2.70
2018-11-03T08:33:36.612Z,2.57
2018-11-03T08:36:05.190Z,1.60
2018-11-03T08:38:33.818Z,1.80
2018-11-03T08:41:02.317Z,1.90
2018-11-03T08:43:30.760Z,1.60
2018-11-03T08:45:59.285Z,1.93
2018-11-03T08:48:27.747Z,1.73
2018-11-03T08:50:56.217Z,1.87
2018-11-03T08:53:24.814Z,1.60
2018-11-03T08:55:53.312Z,1.47
2018-11-03T08:58:21.750Z,1.17
2018-11-03T09:00:50.200Z,2.30
2018-11-03T09:03:19.468Z,1.20
2018-11-03T09:05:47.918Z,1.50
2018-11-03T09:08:16.369Z,1.23
2018-11-03T09:10:44.788Z,1.37
2018-11-03T09:13:13.296Z,1.10
2018-11-03T09:15:41.775Z,1.20
2018-11-03T09:18:10.194Z,1.30
2018-11-03T09:20:39.613Z,1.10
2018-11-03T09:23:08.144Z,1.20
2018-11-03T09:25:36.467Z,1.43
2018-11-03T09:28:04.977Z,1.70
2018-11-03T09:30:33.407Z,2.00
2018-11-03T09:33:01.787Z,2.17
2018-11-03T09:35:30.212Z,1.80
2018-11-03T09:37:58.650Z,1.90
2018-11-03T09:40:27.103Z,3.10
2018-11-03T09:42:55.903Z,2.83
2018-11-03T09:45:24.275Z,2.70
2018-11-03T09:47:52.734Z,2.10
2018-11-03T09:50:21.182Z,2.77
2018-11-03T09:52:49.700Z,3.70
2018-11-03T09:55:19.120Z,2.60
2018-11-03T09:57:47.695Z,2.50
2018-11-03T10:00:17.444Z,1.90
2018-11-03T10:02:45.886Z,2.70
2018-11-03T10:05:14.979Z,1.83
2018-11-03T10:07:43.464Z,1.80
2018-11-03T10:10:14.719Z,1.37
2018-11-03T10:12:43.266Z,7.53
2018-11-03T10:15:12.769Z,1.90
2018-11-03T10:17:41.251Z,1.70
2018-11-03T10:20:09.992Z,2.07
2018-11-03T10:22:38.602Z,1.63
2018-11-03T10:25:10.388Z,2.03
2018-11-03T10:27:38.896Z,1.70
2018-11-03T10:30:08.624Z,2.17
2018-11-03T10:32:37.392Z,1.80
2018-11-03T10:35:06.097Z,1.80
2018-11-03T10:37:34.574Z,1.50
2018-11-03T10:40:03.039Z,1.60
2018-11-03T10:42:31.441Z,1.67
2018-11-03T10:44:59.975Z,1.80
2018-11-03T10:47:28.666Z,3.50
2018-11-03T10:49:57.138Z,1.87
2018-11-03T10:52:25.636Z,1.20
2018-11-03T10:54:54.244Z,1.53
2018-11-03T10:57:22.783Z,1.40
2018-11-03T10:59:51.227Z,1.80
2018-11-03T11:02:25.155Z,1.83
2018-11-03T11:04:58.932Z,1.57
2018-11-03T11:07:33.988Z,1.87
2018-11-03T11:10:07.630Z,1.37
2018-11-03T11:12:39.582Z,1.67
2018-11-03T11:15:09.171Z,1.30
2018-11-03T11:17:37.769Z,1.30
2018-11-03T11:20:07.596Z,1.73
2018-11-03T11:22:36.195Z,1.40
2018-11-03T11:25:05.265Z,1.30
2018-11-03T11:27:33.612Z,1.30
2018-11-03T11:30:02.151Z,0.80
2018-11-03T11:32:30.647Z,1.50
2018-11-03T11:34:59.151Z,1.50
2018-11-03T11:37:27.761Z,1.50
2018-11-03T11:39:56.150Z,1.60
2018-11-03T11:42:24.627Z,1.87
2018-11-03T11:44:53.081Z,1.80
2018-11-03T11:47:21.769Z,1.43
2018-11-03T11:49:50.191Z,2.10
2018-11-03T11:52:18.610Z,1.90
2018-11-03T11:54:47.034Z,1.97
2018-11-03T11:57:15.471Z,2.20
2018-11-03T11:59:43.995Z,2.37
2018-11-03T12:02:12.540Z,2.77
2018-11-03T12:04:40.891Z,2.90
2018-11-03T12:07:09.343Z,2.90
2018-11-03T12:09:37.744Z,3.10
2018-11-03T12:12:06.237Z,3.23
2018-11-03T12:14:34.635Z,3.53
2018-11-03T12:17:03.065Z,3.30
2018-11-03T12:19:31.499Z,4.23
2018-11-03T12:21:59.935Z,3.97
2018-11-03T12:24:28.455Z,3.43
2018-11-03T12:26:56.883Z,3.93
2018-11-03T12:29:25.362Z,4.40
2018-11-03T12:31:53.807Z,4.10
2018-11-03T12:34:22.307Z,4.07
2018-11-03T12:36:50.716Z,3.77
2018-11-03T12:39:19.250Z,3.83
2018-11-03T12:41:47.628Z,3.80
2018-11-03T12:44:16.087Z,3.93
2018-11-03T12:46:44.524Z,3.83
2018-11-03T12:49:12.968Z,3.83
2018-11-03T12:51:41.441Z,4.80
2018-11-03T12:54:09.870Z,3.83
2018-11-03T12:56:38.327Z,4.40
2018-11-03T12:59:06.756Z,3.70
2018-11-03T13:01:35.166Z,4.33
2018-11-03T13:04:03.729Z,4.40
2018-11-03T13:06:32.107Z,4.10
2018-11-03T13:09:00.567Z,5.00
2018-11-03T13:11:29.011Z,4.10
2018-11-03T13:13:57.603Z,4.33
2018-11-03T13:16:26.119Z,4.57
2018-11-03T13:18:54.540Z,4.63
2018-11-03T13:21:22.963Z,4.87
2018-11-03T13:23:51.399Z,4.40
2018-11-03T13:26:19.856Z,5.10
2018-11-03T13:28:48.276Z,5.00
2018-11-03T13:31:16.688Z,5.00
2018-11-03T13:33:45.084Z,5.67
2018-11-03T13:36:13.522Z,6.00
2018-11-03T13:38:41.919Z,5.13
2018-11-03T13:41:10.413Z,5.60
2018-11-03T13:43:38.814Z,5.93
2018-11-03T13:46:07.259Z,6.30
2018-11-03T13:48:35.675Z,5.80
2018-11-03T13:51:04.099Z,6.07
2018-11-03T13:53:32.619Z,5.87
2018-11-03T13:56:01.019Z,6.50
2018-11-03T13:58:29.458Z,5.90
2018-11-03T14:00:57.865Z,6.10
2018-11-03T14:03:26.394Z,6.83
2018-11-03T14:05:54.819Z,7.30
2018-11-03T14:08:23.254Z,6.70
2018-11-03T14:10:51.666Z,6.77
2018-11-03T14:13:20.176Z,6.80
2018-11-03T14:15:48.701Z,7.13
2018-11-03T14:18:17.152Z,6.90
2018-11-03T14:20:45.691Z,6.77
2018-11-03T14:23:14.123Z,7.20
2018-11-03T14:25:42.503Z,7.20
2018-11-03T14:28:10.907Z,8.43
2018-11-03T14:30:39.343Z,7.03
2018-11-03T14:33:07.780Z,7.10
2018-11-03T14:35:36.292Z,8.00
2018-11-03T14:38:04.690Z,8.03
2018-11-03T14:40:33.101Z,8.40
2018-11-03T14:43:01.464Z,8.07
2018-11-03T14:45:29.872Z,8.20
2018-11-03T14:47:58.293Z,8.23
2018-11-03T14:50:32.090Z,8.50
2018-11-03T14:53:00.829Z,10.00
2018-11-03T14:55:29.443Z,8.57
2018-11-03T14:57:57.871Z,9.10
2018-11-03T15:00:26.283Z,9.13
2018-11-03T15:02:54.664Z,8.50
2018-11-03T15:05:23.038Z,8.20
2018-11-03T15:07:51.463Z,8.33
2018-11-03T15:10:19.956Z,7.50
2018-11-03T15:12:48.297Z,8.20
2018-11-03T15:15:16.712Z,8.37
2018-11-03T15:17:45.511Z,8.17
2018-11-03T15:20:13.908Z,7.70
2018-11-03T15:22:43.158Z,8.90
2018-11-03T15:25:11.684Z,9.23
2018-11-03T15:27:40.504Z,10.97
2018-11-03T15:30:10.119Z,10.20
2018-11-03T15:32:38.855Z,8.90
2018-11-03T15:35:07.672Z,8.47
2018-11-03T15:37:35.997Z,8.33
2018-11-03T15:40:04.793Z,8.97
2018-11-03T15:42:33.216Z,9.10
2018-11-03T15:45:01.640Z,10.07
2018-11-03T15:47:30.104Z,10.57
2018-11-03T15:49:58.495Z,9.63
2018-11-03T15:52:26.963Z,10.60
2018-11-03T15:54:55.416Z,9.70
2018-11-03T15:57:23.880Z,9.97
2018-11-03T15:59:52.288Z,10.63
2018-11-03T16:02:20.743Z,9.80
2018-11-03T16:04:49.167Z,9.70
2018-11-03T16:07:17.650Z,9.97
2018-11-03T16:09:46.094Z,9.70
2018-11-03T16:12:14.685Z,11.23
2018-11-03T16:14:42.971Z,10.87
2018-11-03T16:17:11.402Z,11.13
2018-11-03T16:19:39.939Z,11.70
2018-11-03T16:22:08.323Z,13.83
2018-11-03T16:24:36.758Z,12.77
2018-11-03T16:27:05.582Z,13.70
2018-11-03T16:29:33.991Z,13.80
2018-11-03T16:32:02.485Z,13.60
2018-11-03T16:34:30.932Z,14.53
2018-11-03T16:36:59.535Z,15.23
2018-11-03T16:39:28.066Z,15.97
2018-11-03T16:41:56.595Z,15.60
2018-11-03T16:44:25.071Z,16.63
2018-11-03T16:46:53.505Z,17.73
2018-11-03T16:49:22.431Z,17.47
2018-11-03T16:51:50.883Z,17.17
2018-11-03T16:54:19.319Z,19.10
2018-11-03T16:56:47.763Z,17.57
2018-11-03T16:59:16.211Z,15.30
2018-11-03T17:01:44.692Z,14.30
2018-11-03T17:04:13.132Z,12.35
2018-11-03T17:06:41.633Z,17.00
2018-11-03T17:09:09.998Z,12.90
2018-11-03T17:11:38.503Z,13.27
2018-11-03T17:14:07.064Z,16.90
2018-11-03T17:16:35.541Z,14.40
2018-11-03T17:19:04.103Z,16.10
2018-11-03T17:21:32.543Z,14.37
2018-11-03T17:24:01.031Z,15.20
2018-11-03T17:26:29.519Z,13.17
2018-11-03T17:28:58.003Z,13.03
2018-11-03T17:31:26.551Z,13.00
2018-11-03T17:33:55.042Z,14.53
2018-11-03T17:36:23.620Z,13.67
2018-11-03T17:38:52.032Z,14.13
2018-11-03T17:41:20.426Z,15.85
2018-11-03T17:43:48.852Z,14.80
2018-11-03T17:46:17.279Z,13.68
2018-11-03T17:48:45.701Z,14.05
2018-11-03T17:51:14.135Z,15.88
2018-11-03T17:53:42.696Z,15.70
2018-11-03T17:56:11.154Z,15.88
2018-11-03T17:58:39.601Z,16.20
2018-11-03T18:01:08.255Z,13.50
2018-11-03T18:03:36.533Z,14.20
2018-11-03T18:06:05.345Z,14.55
2018-11-03T18:08:33.788Z,15.60
2018-11-03T18:11:02.303Z,15.60
2018-11-03T18:13:30.739Z,14.33
2018-11-03T18:15:59.166Z,14.60
2018-11-03T18:18:27.651Z,14.00
2018-11-03T18:20:56.069Z,12.95
2018-11-03T18:23:24.463Z,13.35
2018-11-03T18:25:52.893Z,13.70
2018-11-03T18:28:21.377Z,14.60
2018-11-03T18:30:49.723Z,14.75
2018-11-03T18:33:18.180Z,14.30
2018-11-03T18:35:46.387Z,14.75
2018-11-03T18:38:14.835Z,13.75
2018-11-03T18:40:43.249Z,13.53
2018-11-03T18:43:11.729Z,14.50
2018-11-03T18:45:40.198Z,16.97
2018-11-03T18:48:08.606Z,16.35
2018-11-03T18:50:37.040Z,17.17
2018-11-03T18:53:05.396Z,17.15
2018-11-03T18:55:33.842Z,15.05
2018-11-03T18:58:02.191Z,15.60
2018-11-03T19:00:30.719Z,14.43
2018-11-03T19:02:59.191Z,15.58
2018-11-03T19:05:27.659Z,16.73
2018-11-03T19:07:56.169Z,15.35
2018-11-03T19:10:24.732Z,14.40
2018-11-03T19:12:53.171Z,15.23
2018-11-03T19:15:21.651Z,15.18
2018-11-03T19:17:50.193Z,17.02
2018-11-03T19:20:18.523Z,16.75
2018-11-03T19:22:47.007Z,18.17
2018-11-03T19:25:15.427Z,18.40
2018-11-03T19:27:43.933Z,18.00
2018-11-03T19:30:13.476Z,17.45
2018-11-03T19:32:43.323Z,16.75
2018-11-03T19:35:11.743Z,16.35
2018-11-03T19:37:40.746Z,18.32
2018-11-03T19:40:10.408Z,16.12
2018-11-03T19:42:39.194Z,16.07
2018-11-03T19:45:07.739Z,16.32
2018-11-03T19:47:36.358Z,14.50
2018-11-03T19:50:05.677Z,17.85
2018-11-03T19:52:34.152Z,16.85
2018-11-03T19:55:02.582Z,16.50
2018-11-03T19:57:31.063Z,17.40
2018-11-03T19:59:59.484Z,15.45
2018-11-03T20:02:28.094Z,13.88
2018-11-03T20:04:56.540Z,17.32
2018-11-03T20:07:24.985Z,15.72
2018-11-03T20:09:53.564Z,21.70
2018-11-03T20:12:23.345Z,17.77
2018-11-03T20:14:52.752Z,17.15
2018-11-03T20:17:21.837Z,16.80
2018-11-03T20:19:51.452Z,16.20
2018-11-03T20:22:20.963Z,17.17
2018-11-03T20:24:49.428Z,18.07
2018-11-03T20:27:17.898Z,18.27
2018-11-03T20:29:46.479Z,16.05
2018-11-03T20:32:14.956Z,16.27
2018-11-03T20:34:43.423Z,16.93
2018-11-03T20:37:11.871Z,17.15
2018-11-03T20:39:40.372Z,17.75
2018-11-03T20:42:11.436Z,17.77
2018-11-03T20:44:39.835Z,16.15
2018-11-03T20:47:08.318Z,17.48
2018-11-03T20:49:36.795Z,16.70
2018-11-03T20:52:05.615Z,17.62
2018-11-03T20:54:34.088Z,17.20
2018-11-03T20:57:02.583Z,16.73
2018-11-03T20:59:31.026Z,18.02
2018-11-03T21:01:59.513Z,27.87
2018-11-03T21:04:27.898Z,21.05
2018-11-03T21:06:56.293Z,22.77
2018-11-03T21:09:24.691Z,22.50
2018-11-03T21:11:53.151Z,22.43
2018-11-03T21:14:21.558Z,22.83
2018-11-03T21:16:49.971Z,24.40
2018-11-03T21:19:18.411Z,25.40
2018-11-03T21:21:46.919Z,25.97
2018-11-03T21:24:15.418Z,29.07
2018-11-03T21:26:43.842Z,33.73
2018-11-03T21:29:12.283Z,29.57
2018-11-03T21:31:41.005Z,30.67
2018-11-03T21:34:09.391Z,29.50
2018-11-03T21:36:37.785Z,29.43
2018-11-03T21:39:07.971Z,29.70
2018-11-03T21:41:36.340Z,29.47
2018-11-03T21:44:04.724Z,29.00
2018-11-03T21:46:33.205Z,28.30
2018-11-03T21:49:01.612Z,29.40
2018-11-03T21:51:29.991Z,31.00
2018-11-03T21:53:58.576Z,30.90
2018-11-03T21:56:27.019Z,29.10
2018-11-03T21:58:55.487Z,29.70
2018-11-03T22:01:23.961Z,30.97
2018-11-03T22:03:52.451Z,29.57
2018-11-03T22:06:20.970Z,30.43
2018-11-03T22:08:49.334Z,31.00
2018-11-03T22:11:17.728Z,31.05
2018-11-03T22:13:46.141Z,31.03
2018-11-03T22:16:14.574Z,31.77
2018-11-03T22:18:42.980Z,31.10
2018-11-03T22:21:11.495Z,30.27
2018-11-03T22:23:39.952Z,30.60
2018-11-03T22:26:08.433Z,30.92
2018-11-03T22:28:36.889Z,29.10
2018-11-03T22:31:05.649Z,30.08
2018-11-03T22:33:33.967Z,29.23
2018-11-03T22:36:02.447Z,29.85
2018-11-03T22:38:30.839Z,29.05
2018-11-03T22:40:59.453Z,29.07
2018-11-03T22:43:28.091Z,29.07
2018-11-03T22:45:56.494Z,30.20
2018-11-03T22:48:24.915Z,28.80
2018-11-03T22:50:53.525Z,30.45
2018-11-03T22:53:21.882Z,29.98
2018-11-03T22:55:50.447Z,30.00
2018-11-03T22:58:18.935Z,29.23
2018-11-03T23:00:53.014Z,28.98
2018-11-03T23:03:21.320Z,28.17
2018-11-03T23:05:49.738Z,28.52
2018-11-03T23:08:18.176Z,29.92
2018-11-03T23:10:46.699Z,29.92
2018-11-03T23:13:15.320Z,29.98
2018-11-03T23:15:43.802Z,28.90
2018-11-03T23:18:12.463Z,28.52
2018-11-03T23:20:41.622Z,26.75
2018-11-03T23:23:10.044Z,25.60
2018-11-03T23:25:38.463Z,27.65
2018-11-03T23:28:06.829Z,27.30
2018-11-03T23:30:35.315Z,27.17
2018-11-03T23:33:03.766Z,27.70
2018-11-03T23:35:32.084Z,24.63
2018-11-03T23:38:00.498Z,27.13
2018-11-03T23:40:28.999Z,25.97
2018-11-03T23:42:57.395Z,25.02
2018-11-03T23:45:25.921Z,25.97
2018-11-03T23:47:54.315Z,26.90
2018-11-03T23:50:22.778Z,28.10
2018-11-03T23:52:51.223Z,25.43
2018-11-03T23:55:19.875Z,26.20
2018-11-03T23:57:48.235Z,28.50
